Portada
METAR-TAF:

METAR-TAF

Aeroports :

Aeroport Internacional de Ras al-Khaimah

Ras al-Khaimah, Emirats Àrabs Units

latitud: 25-37N, longitud: 055-56E, altitud: 31 m

Observació

L'informe es va fer fa 47 minuts, a les 00:00 UTC
Vent 6 kt del Sud/Sud-Est
Temperatura 18°C
Humitat 77%
Pressió 1017 hPa
Visibilitat 10 km o més
sense núvols per sota de 1500 mi sense presència de cumulonimbus.

METAR: OMRK 220000Z 16006KT CAVOK 18/14 Q1017 A3004

Hora: 04:47 (00:47 UTC)

Pronòstic

L'informe es va fer fa 1 hora i 54 minuts, a les 22:53 UTC
Pronòstic vàlid del 22 a les 00 UTC al 23 a les 06 UTC
Vent 2 kt amb direcció variable
Visibilitat: 8000 m
Escasses núvols a una alçada de 4000 ft
Evolucionant progressivament
l' 22 a les 07 UTC al 22 a les 09 UTC
Vent 12 kt del Nord
Evolucionant progressivament
l' 22 a les 14 UTC al 22 a les 16 UTC
Vent 5 kt del Est

TAF: OMRK 212253Z 2200/2306 VRB02KT 8000 FEW040 BECMG 2207/2209 36012KT BECMG 2214/2216 09005KT

Observacions i pronòstics meteorològics de més de 4000 aeroports (METAR i TAF).

Les estacions disponibles són els punts grocs i vermells al mapa.

Posi el ratolí al punt desitjat per veure el nom de l'estació.

Feu clic per veure les observacions i els pronòstics meteorològics.

Per canviar el mapa: feu clic els botons verds amb una creu de color negre per apropar; al botó verd amb un guió per allunyar la imatge; o en les fletxes verdes per a mapes adjacents.


METAR-TAF: